sensor_id;sensor_type;location;lat;lon;timestamp;P1;durP1;ratioP1;P2;durP2;ratioP2
37785;SDS011;23625;48.784;9.336;2024-01-30T00:00:01;12.25;;;5.53;;
37785;SDS011;23625;48.784;9.336;2024-01-30T00:02:26;13.20;;;5.57;;
37785;SDS011;23625;48.784;9.336;2024-01-30T00:04:52;13.95;;;5.72;;
37785;SDS011;23625;48.784;9.336;2024-01-30T00:07:18;15.30;;;6.15;;
37785;SDS011;23625;48.784;9.336;2024-01-30T00:09:46;15.27;;;6.70;;
37785;SDS011;23625;48.784;9.336;2024-01-30T00:12:12;13.27;;;6.28;;
37785;SDS011;23625;48.784;9.336;2024-01-30T00:14:38;11.35;;;6.40;;
37785;SDS011;23625;48.784;9.336;2024-01-30T00:17:03;13.52;;;5.53;;
37785;SDS011;23625;48.784;9.336;2024-01-30T00:19:29;13.90;;;6.30;;
37785;SDS011;23625;48.784;9.336;2024-01-30T00:21:54;17.23;;;6.28;;
37785;SDS011;23625;48.784;9.336;2024-01-30T00:24:20;9.75;;;5.20;;
37785;SDS011;23625;48.784;9.336;2024-01-30T00:26:46;12.23;;;5.97;;
37785;SDS011;23625;48.784;9.336;2024-01-30T00:29:11;12.85;;;6.28;;
37785;SDS011;23625;48.784;9.336;2024-01-30T00:31:37;12.25;;;5.50;;
37785;SDS011;23625;48.784;9.336;2024-01-30T00:34:02;11.70;;;5.80;;
37785;SDS011;23625;48.784;9.336;2024-01-30T00:36:28;9.60;;;5.47;;
37785;SDS011;23625;48.784;9.336;2024-01-30T00:38:55;10.90;;;5.35;;
37785;SDS011;23625;48.784;9.336;2024-01-30T00:41:20;13.77;;;5.88;;
37785;SDS011;23625;48.784;9.336;2024-01-30T00:43:46;11.98;;;4.72;;
37785;SDS011;23625;48.784;9.336;2024-01-30T00:46:11;13.80;;;6.15;;
37785;SDS011;23625;48.784;9.336;2024-01-30T00:48:37;14.82;;;6.65;;
37785;SDS011;23625;48.784;9.336;2024-01-30T00:51:03;17.00;;;6.30;;
37785;SDS011;23625;48.784;9.336;2024-01-30T00:53:28;12.50;;;5.85;;
37785;SDS011;23625;48.784;9.336;2024-01-30T00:55:54;14.25;;;6.00;;
37785;SDS011;23625;48.784;9.336;2024-01-30T00:58:19;17.80;;;6.57;;
37785;SDS011;23625;48.784;9.336;2024-01-30T01:00:45;10.30;;;5.80;;
37785;SDS011;23625;48.784;9.336;2024-01-30T01:03:11;15.25;;;6.50;;
37785;SDS011;23625;48.784;9.336;2024-01-30T01:05:36;12.60;;;5.65;;
37785;SDS011;23625;48.784;9.336;2024-01-30T01:08:02;8.63;;;4.63;;
37785;SDS011;23625;48.784;9.336;2024-01-30T01:10:27;17.95;;;8.23;;
37785;SDS011;23625;48.784;9.336;2024-01-30T01:12:53;13.88;;;6.90;;
37785;SDS011;23625;48.784;9.336;2024-01-30T01:15:19;12.77;;;6.28;;
37785;SDS011;23625;48.784;9.336;2024-01-30T01:17:44;15.13;;;7.05;;
37785;SDS011;23625;48.784;9.336;2024-01-30T01:20:10;17.63;;;7.03;;
37785;SDS011;23625;48.784;9.336;2024-01-30T01:22:37;15.77;;;7.47;;
37785;SDS011;23625;48.784;9.336;2024-01-30T01:25:03;13.38;;;6.45;;
37785;SDS011;23625;48.784;9.336;2024-01-30T01:27:32;15.93;;;7.85;;
37785;SDS011;23625;48.784;9.336;2024-01-30T01:29:59;14.18;;;6.40;;
37785;SDS011;23625;48.784;9.336;2024-01-30T01:32:24;13.60;;;6.55;;
37785;SDS011;23625;48.784;9.336;2024-01-30T01:34:51;17.15;;;8.00;;
37785;SDS011;23625;48.784;9.336;2024-01-30T01:37:28;18.80;;;7.03;;
37785;SDS011;23625;48.784;9.336;2024-01-30T01:39:54;14.40;;;6.45;;
37785;SDS011;23625;48.784;9.336;2024-01-30T01:42:19;15.65;;;7.85;;
37785;SDS011;23625;48.784;9.336;2024-01-30T01:44:45;15.45;;;7.82;;
37785;SDS011;23625;48.784;9.336;2024-01-30T01:47:11;15.07;;;7.07;;
37785;SDS011;23625;48.784;9.336;2024-01-30T01:49:36;15.90;;;7.28;;
37785;SDS011;23625;48.784;9.336;2024-01-30T01:52:02;15.57;;;6.25;;
37785;SDS011;23625;48.784;9.336;2024-01-30T01:54:28;10.10;;;5.65;;
37785;SDS011;23625;48.784;9.336;2024-01-30T01:56:54;11.90;;;6.38;;
37785;SDS011;23625;48.784;9.336;2024-01-30T01:59:20;15.73;;;6.32;;
37785;SDS011;23625;48.784;9.336;2024-01-30T02:01:47;15.93;;;7.93;;
37785;SDS011;23625;48.784;9.336;2024-01-30T02:04:16;12.65;;;5.90;;
37785;SDS011;23625;48.784;9.336;2024-01-30T02:06:42;18.75;;;7.05;;
37785;SDS011;23625;48.784;9.336;2024-01-30T02:09:09;17.42;;;6.75;;
37785;SDS011;23625;48.784;9.336;2024-01-30T02:11:34;13.10;;;6.13;;
37785;SDS011;23625;48.784;9.336;2024-01-30T02:14:03;12.98;;;6.18;;
37785;SDS011;23625;48.784;9.336;2024-01-30T02:16:29;13.43;;;6.70;;
37785;SDS011;23625;48.784;9.336;2024-01-30T02:18:55;15.05;;;7.43;;
37785;SDS011;23625;48.784;9.336;2024-01-30T02:21:20;19.55;;;7.82;;
37785;SDS011;23625;48.784;9.336;2024-01-30T02:23:46;19.27;;;7.38;;
37785;SDS011;23625;48.784;9.336;2024-01-30T02:26:13;14.00;;;7.53;;
37785;SDS011;23625;48.784;9.336;2024-01-30T02:28:39;15.13;;;6.85;;
37785;SDS011;23625;48.784;9.336;2024-01-30T02:31:04;15.32;;;6.65;;
37785;SDS011;23625;48.784;9.336;2024-01-30T02:33:30;15.05;;;6.95;;
37785;SDS011;23625;48.784;9.336;2024-01-30T02:35:56;16.25;;;7.32;;
37785;SDS011;23625;48.784;9.336;2024-01-30T02:38:21;13.57;;;6.80;;
37785;SDS011;23625;48.784;9.336;2024-01-30T02:40:48;15.32;;;7.45;;
37785;SDS011;23625;48.784;9.336;2024-01-30T02:43:14;20.50;;;7.35;;
37785;SDS011;23625;48.784;9.336;2024-01-30T02:45:40;15.88;;;8.43;;
37785;SDS011;23625;48.784;9.336;2024-01-30T02:48:06;18.88;;;8.65;;
37785;SDS011;23625;48.784;9.336;2024-01-30T02:50:32;16.88;;;7.35;;
37785;SDS011;23625;48.784;9.336;2024-01-30T02:52:57;18.45;;;7.88;;
37785;SDS011;23625;48.784;9.336;2024-01-30T02:55:23;15.73;;;8.23;;
37785;SDS011;23625;48.784;9.336;2024-01-30T02:57:48;17.60;;;7.95;;
37785;SDS011;23625;48.784;9.336;2024-01-30T03:00:14;15.40;;;7.30;;
37785;SDS011;23625;48.784;9.336;2024-01-30T03:02:40;15.45;;;7.50;;
37785;SDS011;23625;48.784;9.336;2024-01-30T03:05:05;17.17;;;8.13;;
37785;SDS011;23625;48.784;9.336;2024-01-30T03:07:32;14.38;;;7.20;;
37785;SDS011;23625;48.784;9.336;2024-01-30T03:09:58;18.25;;;7.60;;
37785;SDS011;23625;48.784;9.336;2024-01-30T03:12:24;15.63;;;7.47;;
37785;SDS011;23625;48.784;9.336;2024-01-30T03:14:49;17.55;;;7.72;;
37785;SDS011;23625;48.784;9.336;2024-01-30T03:17:15;17.20;;;7.40;;
37785;SDS011;23625;48.784;9.336;2024-01-30T03:19:40;15.98;;;6.90;;
37785;SDS011;23625;48.784;9.336;2024-01-30T03:22:06;15.18;;;6.88;;
37785;SDS011;23625;48.784;9.336;2024-01-30T03:24:32;14.82;;;7.25;;
37785;SDS011;23625;48.784;9.336;2024-01-30T03:26:57;18.58;;;7.85;;
37785;SDS011;23625;48.784;9.336;2024-01-30T03:29:23;16.00;;;7.32;;
37785;SDS011;23625;48.784;9.336;2024-01-30T03:31:48;15.40;;;7.00;;
37785;SDS011;23625;48.784;9.336;2024-01-30T03:34:14;14.30;;;7.03;;
37785;SDS011;23625;48.784;9.336;2024-01-30T03:36:39;15.10;;;7.22;;
37785;SDS011;23625;48.784;9.336;2024-01-30T03:39:05;15.05;;;7.47;;
37785;SDS011;23625;48.784;9.336;2024-01-30T03:41:31;16.65;;;8.05;;
37785;SDS011;23625;48.784;9.336;2024-01-30T03:43:57;18.10;;;7.90;;
37785;SDS011;23625;48.784;9.336;2024-01-30T03:46:22;15.35;;;7.97;;
37785;SDS011;23625;48.784;9.336;2024-01-30T03:48:48;18.63;;;8.13;;
37785;SDS011;23625;48.784;9.336;2024-01-30T03:51:14;15.77;;;7.82;;
37785;SDS011;23625;48.784;9.336;2024-01-30T03:53:41;18.17;;;8.35;;
37785;SDS011;23625;48.784;9.336;2024-01-30T03:56:07;22.50;;;8.57;;
37785;SDS011;23625;48.784;9.336;2024-01-30T03:58:33;17.75;;;8.30;;
37785;SDS011;23625;48.784;9.336;2024-01-30T04:00:59;18.02;;;8.20;;
37785;SDS011;23625;48.784;9.336;2024-01-30T04:03:24;17.42;;;7.68;;
37785;SDS011;23625;48.784;9.336;2024-01-30T04:05:51;14.75;;;7.72;;
37785;SDS011;23625;48.784;9.336;2024-01-30T04:08:17;13.93;;;6.70;;
37785;SDS011;23625;48.784;9.336;2024-01-30T04:10:43;14.55;;;7.05;;
37785;SDS011;23625;48.784;9.336;2024-01-30T04:13:09;19.23;;;9.45;;
37785;SDS011;23625;48.784;9.336;2024-01-30T04:15:35;13.68;;;7.90;;
37785;SDS011;23625;48.784;9.336;2024-01-30T04:18:00;18.25;;;7.35;;
37785;SDS011;23625;48.784;9.336;2024-01-30T04:20:26;15.30;;;7.65;;
37785;SDS011;23625;48.784;9.336;2024-01-30T04:22:52;17.02;;;9.20;;
37785;SDS011;23625;48.784;9.336;2024-01-30T04:25:18;47.40;;;18.58;;
37785;SDS011;23625;48.784;9.336;2024-01-30T04:27:43;61.38;;;22.35;;
37785;SDS011;23625;48.784;9.336;2024-01-30T04:30:09;40.95;;;16.13;;
37785;SDS011;23625;48.784;9.336;2024-01-30T04:32:35;26.00;;;11.07;;
37785;SDS011;23625;48.784;9.336;2024-01-30T04:35:01;20.17;;;8.20;;
37785;SDS011;23625;48.784;9.336;2024-01-30T04:37:27;17.63;;;8.55;;
37785;SDS011;23625;48.784;9.336;2024-01-30T04:39:53;20.02;;;8.98;;
37785;SDS011;23625;48.784;9.336;2024-01-30T04:42:18;19.92;;;8.77;;
37785;SDS011;23625;48.784;9.336;2024-01-30T04:44:44;18.52;;;8.70;;
37785;SDS011;23625;48.784;9.336;2024-01-30T04:47:10;31.48;;;9.43;;
37785;SDS011;23625;48.784;9.336;2024-01-30T04:49:37;19.23;;;9.55;;
37785;SDS011;23625;48.784;9.336;2024-01-30T04:52:04;22.92;;;9.18;;
37785;SDS011;23625;48.784;9.336;2024-01-30T04:54:30;14.02;;;7.40;;
37785;SDS011;23625;48.784;9.336;2024-01-30T04:56:56;23.13;;;9.18;;
37785;SDS011;23625;48.784;9.336;2024-01-30T04:59:22;20.17;;;9.15;;
37785;SDS011;23625;48.784;9.336;2024-01-30T05:01:47;17.45;;;9.05;;
37785;SDS011;23625;48.784;9.336;2024-01-30T05:04:13;14.80;;;7.18;;
37785;SDS011;23625;48.784;9.336;2024-01-30T05:06:38;15.20;;;7.28;;
37785;SDS011;23625;48.784;9.336;2024-01-30T05:09:04;14.80;;;7.00;;
37785;SDS011;23625;48.784;9.336;2024-01-30T05:11:30;16.48;;;8.85;;
37785;SDS011;23625;48.784;9.336;2024-01-30T05:13:55;14.50;;;7.45;;
37785;SDS011;23625;48.784;9.336;2024-01-30T05:16:21;17.70;;;8.30;;
37785;SDS011;23625;48.784;9.336;2024-01-30T05:18:47;14.50;;;8.27;;
37785;SDS011;23625;48.784;9.336;2024-01-30T05:21:13;17.15;;;8.30;;
37785;SDS011;23625;48.784;9.336;2024-01-30T05:23:38;18.55;;;8.07;;
37785;SDS011;23625;48.784;9.336;2024-01-30T05:26:05;15.20;;;8.35;;
37785;SDS011;23625;48.784;9.336;2024-01-30T05:28:30;16.38;;;8.57;;
37785;SDS011;23625;48.784;9.336;2024-01-30T05:30:56;19.02;;;9.38;;
37785;SDS011;23625;48.784;9.336;2024-01-30T05:33:22;16.00;;;7.30;;
37785;SDS011;23625;48.784;9.336;2024-01-30T05:35:47;15.68;;;7.88;;
37785;SDS011;23625;48.784;9.336;2024-01-30T05:38:13;17.50;;;8.68;;
37785;SDS011;23625;48.784;9.336;2024-01-30T05:40:40;15.27;;;8.18;;
37785;SDS011;23625;48.784;9.336;2024-01-30T05:43:06;23.17;;;10.32;;
37785;SDS011;23625;48.784;9.336;2024-01-30T05:45:32;35.85;;;15.13;;
37785;SDS011;23625;48.784;9.336;2024-01-30T05:47:59;30.17;;;15.15;;
37785;SDS011;23625;48.784;9.336;2024-01-30T05:50:24;38.00;;;14.75;;
37785;SDS011;23625;48.784;9.336;2024-01-30T05:52:51;28.02;;;13.20;;
37785;SDS011;23625;48.784;9.336;2024-01-30T05:55:16;25.20;;;12.05;;
37785;SDS011;23625;48.784;9.336;2024-01-30T05:57:42;24.92;;;13.23;;
37785;SDS011;23625;48.784;9.336;2024-01-30T06:00:08;25.13;;;11.07;;
37785;SDS011;23625;48.784;9.336;2024-01-30T06:02:33;18.70;;;8.93;;
37785;SDS011;23625;48.784;9.336;2024-01-30T06:04:59;24.65;;;10.55;;
37785;SDS011;23625;48.784;9.336;2024-01-30T06:07:25;26.35;;;11.25;;
37785;SDS011;23625;48.784;9.336;2024-01-30T06:09:50;42.63;;;16.98;;
37785;SDS011;23625;48.784;9.336;2024-01-30T06:12:16;62.92;;;22.13;;
37785;SDS011;23625;48.784;9.336;2024-01-30T06:14:41;87.75;;;30.38;;
37785;SDS011;23625;48.784;9.336;2024-01-30T06:17:07;56.95;;;22.98;;
37785;SDS011;23625;48.784;9.336;2024-01-30T06:19:37;57.70;;;22.73;;
37785;SDS011;23625;48.784;9.336;2024-01-30T06:22:06;47.45;;;19.92;;
37785;SDS011;23625;48.784;9.336;2024-01-30T06:24:32;43.95;;;16.13;;
37785;SDS011;23625;48.784;9.336;2024-01-30T06:26:58;27.55;;;11.35;;
37785;SDS011;23625;48.784;9.336;2024-01-30T06:29:24;36.78;;;12.82;;
37785;SDS011;23625;48.784;9.336;2024-01-30T06:31:51;29.08;;;12.55;;
37785;SDS011;23625;48.784;9.336;2024-01-30T06:34:17;30.75;;;13.23;;
37785;SDS011;23625;48.784;9.336;2024-01-30T06:36:43;34.13;;;12.48;;
37785;SDS011;23625;48.784;9.336;2024-01-30T06:39:08;29.55;;;13.20;;
37785;SDS011;23625;48.784;9.336;2024-01-30T06:41:34;21.58;;;10.98;;
37785;SDS011;23625;48.784;9.336;2024-01-30T06:44:01;22.08;;;12.82;;
37785;SDS011;23625;48.784;9.336;2024-01-30T06:46:28;24.15;;;11.88;;
37785;SDS011;23625;48.784;9.336;2024-01-30T06:48:53;30.48;;;11.15;;
37785;SDS011;23625;48.784;9.336;2024-01-30T06:51:19;24.90;;;11.13;;
37785;SDS011;23625;48.784;9.336;2024-01-30T06:53:44;29.20;;;9.95;;
37785;SDS011;23625;48.784;9.336;2024-01-30T06:56:10;24.38;;;10.95;;
37785;SDS011;23625;48.784;9.336;2024-01-30T06:58:35;27.35;;;11.57;;
37785;SDS011;23625;48.784;9.336;2024-01-30T07:01:01;21.50;;;10.90;;
37785;SDS011;23625;48.784;9.336;2024-01-30T07:03:27;17.13;;;8.10;;
37785;SDS011;23625;48.784;9.336;2024-01-30T07:05:52;17.67;;;7.75;;
37785;SDS011;23625;48.784;9.336;2024-01-30T07:08:18;20.98;;;8.90;;
37785;SDS011;23625;48.784;9.336;2024-01-30T07:10:43;13.85;;;7.05;;
37785;SDS011;23625;48.784;9.336;2024-01-30T07:13:10;18.90;;;7.55;;
37785;SDS011;23625;48.784;9.336;2024-01-30T07:15:36;21.23;;;7.63;;
37785;SDS011;23625;48.784;9.336;2024-01-30T07:18:02;17.52;;;7.35;;
37785;SDS011;23625;48.784;9.336;2024-01-30T07:20:28;21.33;;;8.10;;
37785;SDS011;23625;48.784;9.336;2024-01-30T07:22:55;13.10;;;7.63;;
37785;SDS011;23625;48.784;9.336;2024-01-30T07:25:21;16.70;;;8.38;;
37785;SDS011;23625;48.784;9.336;2024-01-30T07:27:51;19.00;;;8.57;;
37785;SDS011;23625;48.784;9.336;2024-01-30T07:30:20;19.70;;;8.38;;
37785;SDS011;23625;48.784;9.336;2024-01-30T07:32:46;22.05;;;8.60;;
37785;SDS011;23625;48.784;9.336;2024-01-30T07:35:12;17.70;;;9.13;;
37785;SDS011;23625;48.784;9.336;2024-01-30T07:37:38;20.15;;;8.75;;
37785;SDS011;23625;48.784;9.336;2024-01-30T07:40:04;17.42;;;9.10;;
37785;SDS011;23625;48.784;9.336;2024-01-30T07:42:31;24.20;;;10.18;;
37785;SDS011;23625;48.784;9.336;2024-01-30T07:44:57;23.13;;;10.40;;
37785;SDS011;23625;48.784;9.336;2024-01-30T07:47:22;36.58;;;15.77;;
37785;SDS011;23625;48.784;9.336;2024-01-30T07:49:48;50.42;;;20.75;;
37785;SDS011;23625;48.784;9.336;2024-01-30T07:52:13;30.90;;;13.98;;
37785;SDS011;23625;48.784;9.336;2024-01-30T07:54:48;29.58;;;11.77;;
37785;SDS011;23625;48.784;9.336;2024-01-30T07:57:14;23.73;;;10.63;;
37785;SDS011;23625;48.784;9.336;2024-01-30T07:59:42;22.63;;;9.10;;
37785;SDS011;23625;48.784;9.336;2024-01-30T08:02:09;21.25;;;10.48;;
37785;SDS011;23625;48.784;9.336;2024-01-30T08:04:35;18.95;;;9.25;;
37785;SDS011;23625;48.784;9.336;2024-01-30T08:07:00;22.23;;;9.48;;
37785;SDS011;23625;48.784;9.336;2024-01-30T08:09:26;28.17;;;11.70;;
37785;SDS011;23625;48.784;9.336;2024-01-30T08:11:51;22.85;;;9.98;;
37785;SDS011;23625;48.784;9.336;2024-01-30T08:14:17;42.00;;;16.38;;
37785;SDS011;23625;48.784;9.336;2024-01-30T08:16:43;35.38;;;18.80;;
37785;SDS011;23625;48.784;9.336;2024-01-30T08:19:08;35.88;;;15.77;;
37785;SDS011;23625;48.784;9.336;2024-01-30T08:21:34;27.27;;;12.65;;
37785;SDS011;23625;48.784;9.336;2024-01-30T08:24:02;21.45;;;11.30;;
37785;SDS011;23625;48.784;9.336;2024-01-30T08:26:29;24.25;;;11.68;;
37785;SDS011;23625;48.784;9.336;2024-01-30T08:28:55;26.77;;;12.50;;
37785;SDS011;23625;48.784;9.336;2024-01-30T08:31:21;22.35;;;10.68;;
37785;SDS011;23625;48.784;9.336;2024-01-30T08:33:46;25.95;;;12.43;;
37785;SDS011;23625;48.784;9.336;2024-01-30T08:36:12;29.30;;;13.75;;
37785;SDS011;23625;48.784;9.336;2024-01-30T08:38:38;30.90;;;13.88;;
37785;SDS011;23625;48.784;9.336;2024-01-30T08:41:03;25.73;;;12.98;;
37785;SDS011;23625;48.784;9.336;2024-01-30T08:43:30;29.30;;;13.43;;
37785;SDS011;23625;48.784;9.336;2024-01-30T08:45:55;33.25;;;14.48;;
37785;SDS011;23625;48.784;9.336;2024-01-30T08:48:24;29.48;;;13.63;;
37785;SDS011;23625;48.784;9.336;2024-01-30T08:50:50;32.58;;;15.10;;
37785;SDS011;23625;48.784;9.336;2024-01-30T08:53:16;27.83;;;13.73;;
37785;SDS011;23625;48.784;9.336;2024-01-30T08:55:41;36.97;;;14.15;;
37785;SDS011;23625;48.784;9.336;2024-01-30T08:58:07;28.92;;;12.82;;
37785;SDS011;23625;48.784;9.336;2024-01-30T09:00:33;24.10;;;11.82;;
37785;SDS011;23625;48.784;9.336;2024-01-30T09:02:58;27.65;;;11.57;;
37785;SDS011;23625;48.784;9.336;2024-01-30T09:05:24;37.63;;;15.23;;
37785;SDS011;23625;48.784;9.336;2024-01-30T09:07:49;43.60;;;16.73;;
37785;SDS011;23625;48.784;9.336;2024-01-30T09:10:15;38.35;;;13.85;;
37785;SDS011;23625;48.784;9.336;2024-01-30T09:12:40;35.53;;;15.10;;
37785;SDS011;23625;48.784;9.336;2024-01-30T09:15:06;44.78;;;17.42;;
37785;SDS011;23625;48.784;9.336;2024-01-30T09:17:32;35.53;;;15.52;;
37785;SDS011;23625;48.784;9.336;2024-01-30T09:19:58;29.95;;;14.25;;
37785;SDS011;23625;48.784;9.336;2024-01-30T09:22:24;33.80;;;13.85;;
37785;SDS011;23625;48.784;9.336;2024-01-30T09:24:49;29.52;;;13.85;;
37785;SDS011;23625;48.784;9.336;2024-01-30T09:27:15;23.65;;;13.57;;
37785;SDS011;23625;48.784;9.336;2024-01-30T09:29:41;33.85;;;14.35;;
37785;SDS011;23625;48.784;9.336;2024-01-30T09:32:06;46.05;;;17.55;;
37785;SDS011;23625;48.784;9.336;2024-01-30T09:34:34;45.33;;;16.52;;
37785;SDS011;23625;48.784;9.336;2024-01-30T09:36:59;53.38;;;19.17;;
37785;SDS011;23625;48.784;9.336;2024-01-30T09:39:25;31.63;;;13.85;;
37785;SDS011;23625;48.784;9.336;2024-01-30T09:44:42;25.48;;;11.52;;
37785;SDS011;23625;48.784;9.336;2024-01-30T09:47:09;21.77;;;11.23;;
37785;SDS011;23625;48.784;9.336;2024-01-30T09:49:35;16.77;;;10.10;;
37785;SDS011;23625;48.784;9.336;2024-01-30T09:52:02;18.55;;;9.35;;
37785;SDS011;23625;48.784;9.336;2024-01-30T09:54:31;17.20;;;9.60;;
37785;SDS011;23625;48.784;9.336;2024-01-30T09:56:58;19.83;;;9.00;;
37785;SDS011;23625;48.784;9.336;2024-01-30T09:59:23;19.27;;;8.57;;
37785;SDS011;23625;48.784;9.336;2024-01-30T10:01:50;16.58;;;8.43;;
37785;SDS011;23625;48.784;9.336;2024-01-30T10:04:16;15.48;;;8.27;;
37785;SDS011;23625;48.784;9.336;2024-01-30T10:06:41;18.48;;;10.15;;
37785;SDS011;23625;48.784;9.336;2024-01-30T10:09:07;15.70;;;8.10;;
37785;SDS011;23625;48.784;9.336;2024-01-30T10:11:34;22.40;;;9.43;;
37785;SDS011;23625;48.784;9.336;2024-01-30T10:14:00;17.00;;;9.23;;
37785;SDS011;23625;48.784;9.336;2024-01-30T10:16:26;17.42;;;9.07;;
37785;SDS011;23625;48.784;9.336;2024-01-30T10:18:52;30.67;;;12.55;;
37785;SDS011;23625;48.784;9.336;2024-01-30T10:21:17;54.03;;;20.55;;
37785;SDS011;23625;48.784;9.336;2024-01-30T10:23:43;42.83;;;17.95;;
37785;SDS011;23625;48.784;9.336;2024-01-30T10:26:12;31.70;;;15.20;;
37785;SDS011;23625;48.784;9.336;2024-01-30T10:28:37;44.20;;;19.15;;
37785;SDS011;23625;48.784;9.336;2024-01-30T10:31:03;49.13;;;17.88;;
37785;SDS011;23625;48.784;9.336;2024-01-30T10:33:31;29.10;;;14.07;;
37785;SDS011;23625;48.784;9.336;2024-01-30T10:36:03;32.88;;;11.85;;
37785;SDS011;23625;48.784;9.336;2024-01-30T10:38:29;23.20;;;10.43;;
37785;SDS011;23625;48.784;9.336;2024-01-30T10:40:59;18.88;;;9.50;;
37785;SDS011;23625;48.784;9.336;2024-01-30T10:43:32;18.27;;;9.55;;
37785;SDS011;23625;48.784;9.336;2024-01-30T10:46:15;18.20;;;9.70;;
37785;SDS011;23625;48.784;9.336;2024-01-30T10:48:44;23.20;;;9.55;;
37785;SDS011;23625;48.784;9.336;2024-01-30T10:51:15;18.85;;;10.27;;
37785;SDS011;23625;48.784;9.336;2024-01-30T10:53:43;18.83;;;9.10;;
37785;SDS011;23625;48.784;9.336;2024-01-30T10:56:11;33.35;;;10.65;;
37785;SDS011;23625;48.784;9.336;2024-01-30T10:58:38;23.38;;;9.73;;
37785;SDS011;23625;48.784;9.336;2024-01-30T11:01:04;25.25;;;9.23;;
37785;SDS011;23625;48.784;9.336;2024-01-30T11:03:31;23.10;;;9.23;;
37785;SDS011;23625;48.784;9.336;2024-01-30T11:06:00;23.73;;;8.98;;
37785;SDS011;23625;48.784;9.336;2024-01-30T11:08:26;21.60;;;9.15;;
37785;SDS011;23625;48.784;9.336;2024-01-30T11:10:57;32.42;;;9.10;;
37785;SDS011;23625;48.784;9.336;2024-01-30T11:13:26;18.00;;;8.27;;
37785;SDS011;23625;48.784;9.336;2024-01-30T11:15:55;20.08;;;9.00;;
37785;SDS011;23625;48.784;9.336;2024-01-30T11:18:25;15.18;;;8.82;;
37785;SDS011;23625;48.784;9.336;2024-01-30T11:20:55;25.25;;;9.88;;
37785;SDS011;23625;48.784;9.336;2024-01-30T11:23:22;35.25;;;16.27;;
37785;SDS011;23625;48.784;9.336;2024-01-30T11:25:48;22.20;;;9.18;;
37785;SDS011;23625;48.784;9.336;2024-01-30T11:28:14;17.15;;;7.60;;
37785;SDS011;23625;48.784;9.336;2024-01-30T11:30:41;25.63;;;8.00;;
37785;SDS011;23625;48.784;9.336;2024-01-30T11:38:09;19.98;;;6.93;;
37785;SDS011;23625;48.784;9.336;2024-01-30T11:40:36;14.82;;;7.43;;
37785;SDS011;23625;48.784;9.336;2024-01-30T11:43:04;16.92;;;7.40;;
37785;SDS011;23625;48.784;9.336;2024-01-30T11:45:30;25.10;;;7.63;;
37785;SDS011;23625;48.784;9.336;2024-01-30T11:47:57;20.73;;;7.30;;
37785;SDS011;23625;48.784;9.336;2024-01-30T11:50:28;37.30;;;9.57;;
37785;SDS011;23625;48.784;9.336;2024-01-30T11:52:55;51.10;;;9.60;;
37785;SDS011;23625;48.784;9.336;2024-01-30T11:55:20;17.88;;;9.52;;
37785;SDS011;23625;48.784;9.336;2024-01-30T11:57:46;19.70;;;7.40;;
37785;SDS011;23625;48.784;9.336;2024-01-30T12:00:15;14.18;;;7.22;;
37785;SDS011;23625;48.784;9.336;2024-01-30T12:02:42;20.85;;;7.60;;
37785;SDS011;23625;48.784;9.336;2024-01-30T12:05:08;17.88;;;7.38;;
37785;SDS011;23625;48.784;9.336;2024-01-30T12:07:36;23.83;;;7.57;;
37785;SDS011;23625;48.784;9.336;2024-01-30T12:10:02;20.52;;;8.20;;
37785;SDS011;23625;48.784;9.336;2024-01-30T12:12:28;17.17;;;8.95;;
37785;SDS011;23625;48.784;9.336;2024-01-30T12:14:55;35.20;;;11.32;;
37785;SDS011;23625;48.784;9.336;2024-01-30T12:17:30;26.15;;;8.52;;
37785;SDS011;23625;48.784;9.336;2024-01-30T12:20:04;25.52;;;8.13;;
37785;SDS011;23625;48.784;9.336;2024-01-30T12:25:12;29.17;;;7.63;;
37785;SDS011;23625;48.784;9.336;2024-01-30T12:27:39;31.50;;;8.82;;
37785;SDS011;23625;48.784;9.336;2024-01-30T12:30:07;29.60;;;10.07;;
37785;SDS011;23625;48.784;9.336;2024-01-30T12:32:44;22.23;;;8.05;;
37785;SDS011;23625;48.784;9.336;2024-01-30T12:35:11;21.83;;;8.27;;
37785;SDS011;23625;48.784;9.336;2024-01-30T12:37:38;27.25;;;8.45;;
37785;SDS011;23625;48.784;9.336;2024-01-30T12:40:04;23.10;;;7.72;;
37785;SDS011;23625;48.784;9.336;2024-01-30T12:42:31;27.48;;;9.40;;
37785;SDS011;23625;48.784;9.336;2024-01-30T12:45:00;33.78;;;8.40;;
37785;SDS011;23625;48.784;9.336;2024-01-30T12:47:27;27.05;;;9.00;;
37785;SDS011;23625;48.784;9.336;2024-01-30T12:49:52;18.58;;;7.82;;
37785;SDS011;23625;48.784;9.336;2024-01-30T12:52:19;21.33;;;7.85;;
37785;SDS011;23625;48.784;9.336;2024-01-30T12:54:46;16.17;;;7.72;;
37785;SDS011;23625;48.784;9.336;2024-01-30T12:57:12;29.10;;;9.35;;
37785;SDS011;23625;48.784;9.336;2024-01-30T12:59:37;18.50;;;6.75;;
37785;SDS011;23625;48.784;9.336;2024-01-30T13:02:04;69.45;;;12.27;;
37785;SDS011;23625;48.784;9.336;2024-01-30T13:04:30;20.25;;;7.85;;
37785;SDS011;23625;48.784;9.336;2024-01-30T13:06:55;21.45;;;7.10;;
37785;SDS011;23625;48.784;9.336;2024-01-30T13:09:22;16.70;;;7.25;;
37785;SDS011;23625;48.784;9.336;2024-01-30T13:11:49;13.00;;;5.80;;
37785;SDS011;23625;48.784;9.336;2024-01-30T13:14:16;19.92;;;7.15;;
37785;SDS011;23625;48.784;9.336;2024-01-30T13:16:41;17.15;;;7.40;;
37785;SDS011;23625;48.784;9.336;2024-01-30T13:19:07;14.45;;;6.00;;
37785;SDS011;23625;48.784;9.336;2024-01-30T13:21:32;18.60;;;6.90;;
37785;SDS011;23625;48.784;9.336;2024-01-30T13:23:58;26.23;;;6.22;;
37785;SDS011;23625;48.784;9.336;2024-01-30T13:26:23;29.40;;;14.88;;
37785;SDS011;23625;48.784;9.336;2024-01-30T13:28:49;19.10;;;8.35;;
37785;SDS011;23625;48.784;9.336;2024-01-30T13:31:15;15.95;;;6.85;;
37785;SDS011;23625;48.784;9.336;2024-01-30T13:33:41;22.23;;;7.57;;
37785;SDS011;23625;48.784;9.336;2024-01-30T13:36:07;33.45;;;16.83;;
37785;SDS011;23625;48.784;9.336;2024-01-30T13:38:34;36.65;;;18.00;;
37785;SDS011;23625;48.784;9.336;2024-01-30T13:41:00;56.15;;;25.02;;
37785;SDS011;23625;48.784;9.336;2024-01-30T13:43:26;31.70;;;13.13;;
37785;SDS011;23625;48.784;9.336;2024-01-30T13:45:51;30.13;;;14.00;;
37785;SDS011;23625;48.784;9.336;2024-01-30T13:48:17;20.73;;;10.52;;
37785;SDS011;23625;48.784;9.336;2024-01-30T13:50:43;13.60;;;6.65;;
37785;SDS011;23625;48.784;9.336;2024-01-30T13:53:09;36.15;;;8.73;;
37785;SDS011;23625;48.784;9.336;2024-01-30T13:55:35;24.33;;;7.15;;
37785;SDS011;23625;48.784;9.336;2024-01-30T13:58:00;13.00;;;6.05;;
37785;SDS011;23625;48.784;9.336;2024-01-30T14:00:26;15.20;;;6.05;;
37785;SDS011;23625;48.784;9.336;2024-01-30T14:02:52;29.80;;;6.40;;
37785;SDS011;23625;48.784;9.336;2024-01-30T14:05:22;13.07;;;5.63;;
37785;SDS011;23625;48.784;9.336;2024-01-30T14:07:48;20.33;;;6.20;;
37785;SDS011;23625;48.784;9.336;2024-01-30T14:10:14;12.15;;;6.28;;
37785;SDS011;23625;48.784;9.336;2024-01-30T14:12:41;19.17;;;6.22;;
37785;SDS011;23625;48.784;9.336;2024-01-30T14:15:08;16.58;;;8.32;;
37785;SDS011;23625;48.784;9.336;2024-01-30T14:17:35;21.98;;;7.38;;
37785;SDS011;23625;48.784;9.336;2024-01-30T14:20:01;21.35;;;7.13;;
37785;SDS011;23625;48.784;9.336;2024-01-30T14:22:28;26.48;;;8.10;;
37785;SDS011;23625;48.784;9.336;2024-01-30T14:24:53;26.88;;;7.35;;
37785;SDS011;23625;48.784;9.336;2024-01-30T14:27:21;24.85;;;6.38;;
37785;SDS011;23625;48.784;9.336;2024-01-30T14:29:47;24.42;;;7.85;;
37785;SDS011;23625;48.784;9.336;2024-01-30T14:32:12;33.15;;;8.25;;
37785;SDS011;23625;48.784;9.336;2024-01-30T14:34:38;16.83;;;6.57;;